sensor_id;sensor_type;location;lat;lon;timestamp;temperature;humidity
22787;DHT22;63134;52.020;4.714;2024-03-06T00:00:15;9.00;88.30
22787;DHT22;63134;52.020;4.714;2024-03-06T00:03:00;9.00;88.20
22787;DHT22;63134;52.020;4.714;2024-03-06T00:05:45;8.90;88.40
22787;DHT22;63134;52.020;4.714;2024-03-06T00:08:32;9.00;88.30
22787;DHT22;63134;52.020;4.714;2024-03-06T00:11:18;9.00;88.60
22787;DHT22;63134;52.020;4.714;2024-03-06T00:14:03;9.00;88.70
22787;DHT22;63134;52.020;4.714;2024-03-06T00:16:52;9.00;88.70
22787;DHT22;63134;52.020;4.714;2024-03-06T00:19:37;9.10;88.70
22787;DHT22;63134;52.020;4.714;2024-03-06T00:22:23;9.10;88.50
22787;DHT22;63134;52.020;4.714;2024-03-06T00:25:09;9.10;88.60
22787;DHT22;63134;52.020;4.714;2024-03-06T00:27:54;9.10;88.90
22787;DHT22;63134;52.020;4.714;2024-03-06T00:30:40;9.00;88.60
22787;DHT22;63134;52.020;4.714;2024-03-06T00:33:26;9.00;88.70
22787;DHT22;63134;52.020;4.714;2024-03-06T00:36:11;9.00;88.80
22787;DHT22;63134;52.020;4.714;2024-03-06T00:38:57;9.00;88.90
22787;DHT22;63134;52.020;4.714;2024-03-06T00:41:42;8.90;88.60
22787;DHT22;63134;52.020;4.714;2024-03-06T00:44:28;8.90;88.90
22787;DHT22;63134;52.020;4.714;2024-03-06T00:47:13;8.90;90.00
22787;DHT22;63134;52.020;4.714;2024-03-06T00:49:59;8.90;89.50
22787;DHT22;63134;52.020;4.714;2024-03-06T00:52:44;8.90;89.70
22787;DHT22;63134;52.020;4.714;2024-03-06T00:55:30;8.90;89.70
22787;DHT22;63134;52.020;4.714;2024-03-06T00:58:15;8.90;89.50
22787;DHT22;63134;52.020;4.714;2024-03-06T01:01:00;8.90;89.50
22787;DHT22;63134;52.020;4.714;2024-03-06T01:03:46;8.90;89.50
22787;DHT22;63134;52.020;4.714;2024-03-06T01:06:32;8.80;89.30
22787;DHT22;63134;52.020;4.714;2024-03-06T01:09:17;8.80;89.60
22787;DHT22;63134;52.020;4.714;2024-03-06T01:12:03;8.70;89.90
22787;DHT22;63134;52.020;4.714;2024-03-06T01:14:48;8.70;90.20
22787;DHT22;63134;52.020;4.714;2024-03-06T01:17:34;8.80;90.10
22787;DHT22;63134;52.020;4.714;2024-03-06T01:20:20;8.80;90.10
22787;DHT22;63134;52.020;4.714;2024-03-06T01:23:06;8.90;90.20
22787;DHT22;63134;52.020;4.714;2024-03-06T01:25:52;8.90;90.10
22787;DHT22;63134;52.020;4.714;2024-03-06T01:28:38;8.90;90.10
22787;DHT22;63134;52.020;4.714;2024-03-06T01:31:24;9.00;90.10
22787;DHT22;63134;52.020;4.714;2024-03-06T01:34:11;9.00;90.10
22787;DHT22;63134;52.020;4.714;2024-03-06T01:36:57;9.00;90.00
22787;DHT22;63134;52.020;4.714;2024-03-06T01:39:43;9.00;90.00
22787;DHT22;63134;52.020;4.714;2024-03-06T01:42:28;9.00;89.90
22787;DHT22;63134;52.020;4.714;2024-03-06T01:45:15;9.00;89.50
22787;DHT22;63134;52.020;4.714;2024-03-06T01:48:01;8.90;89.50
22787;DHT22;63134;52.020;4.714;2024-03-06T01:50:46;8.80;89.60
22787;DHT22;63134;52.020;4.714;2024-03-06T01:53:33;8.80;89.90
22787;DHT22;63134;52.020;4.714;2024-03-06T01:56:20;8.70;90.00
22787;DHT22;63134;52.020;4.714;2024-03-06T01:59:06;8.70;90.20
22787;DHT22;63134;52.020;4.714;2024-03-06T02:01:55;8.70;90.10
22787;DHT22;63134;52.020;4.714;2024-03-06T02:04:41;8.80;90.20
22787;DHT22;63134;52.020;4.714;2024-03-06T02:07:28;8.70;90.00
22787;DHT22;63134;52.020;4.714;2024-03-06T02:10:17;8.80;90.20
22787;DHT22;63134;52.020;4.714;2024-03-06T02:13:02;8.80;90.20
22787;DHT22;63134;52.020;4.714;2024-03-06T02:15:48;8.70;90.10
22787;DHT22;63134;52.020;4.714;2024-03-06T02:18:34;8.70;90.00
22787;DHT22;63134;52.020;4.714;2024-03-06T02:21:24;8.60;90.00
22787;DHT22;63134;52.020;4.714;2024-03-06T02:24:10;8.50;89.80
22787;DHT22;63134;52.020;4.714;2024-03-06T02:26:57;8.40;89.70
22787;DHT22;63134;52.020;4.714;2024-03-06T02:29:42;8.30;90.00
22787;DHT22;63134;52.020;4.714;2024-03-06T02:32:28;8.30;90.20
22787;DHT22;63134;52.020;4.714;2024-03-06T02:35:14;8.20;90.30
22787;DHT22;63134;52.020;4.714;2024-03-06T02:38:03;8.20;90.30
22787;DHT22;63134;52.020;4.714;2024-03-06T02:40:50;8.20;90.50
22787;DHT22;63134;52.020;4.714;2024-03-06T02:43:36;8.20;90.60
22787;DHT22;63134;52.020;4.714;2024-03-06T02:46:21;8.20;90.60
22787;DHT22;63134;52.020;4.714;2024-03-06T02:49:07;8.20;90.50
22787;DHT22;63134;52.020;4.714;2024-03-06T02:51:52;8.20;90.60
22787;DHT22;63134;52.020;4.714;2024-03-06T02:54:41;8.20;90.60
22787;DHT22;63134;52.020;4.714;2024-03-06T02:57:29;8.30;90.50
22787;DHT22;63134;52.020;4.714;2024-03-06T03:00:15;8.20;90.40
22787;DHT22;63134;52.020;4.714;2024-03-06T03:03:01;8.20;90.50
22787;DHT22;63134;52.020;4.714;2024-03-06T03:05:47;8.20;90.50
22787;DHT22;63134;52.020;4.714;2024-03-06T03:08:32;8.10;90.40
22787;DHT22;63134;52.020;4.714;2024-03-06T03:11:18;8.10;90.50
22787;DHT22;63134;52.020;4.714;2024-03-06T03:14:04;8.00;90.50
22787;DHT22;63134;52.020;4.714;2024-03-06T03:16:49;7.90;90.50
22787;DHT22;63134;52.020;4.714;2024-03-06T03:19:35;7.80;90.50
22787;DHT22;63134;52.020;4.714;2024-03-06T03:22:21;7.70;90.60
22787;DHT22;63134;52.020;4.714;2024-03-06T03:25:10;7.60;90.60
22787;DHT22;63134;52.020;4.714;2024-03-06T03:27:57;7.50;90.60
22787;DHT22;63134;52.020;4.714;2024-03-06T03:30:44;7.40;90.70
22787;DHT22;63134;52.020;4.714;2024-03-06T03:33:30;7.30;90.90
22787;DHT22;63134;52.020;4.714;2024-03-06T03:36:15;7.20;91.10
22787;DHT22;63134;52.020;4.714;2024-03-06T03:39:01;7.20;91.30
22787;DHT22;63134;52.020;4.714;2024-03-06T03:41:47;7.30;91.50
22787;DHT22;63134;52.020;4.714;2024-03-06T03:44:33;7.30;91.60
22787;DHT22;63134;52.020;4.714;2024-03-06T03:47:19;7.40;91.70
22787;DHT22;63134;52.020;4.714;2024-03-06T03:50:04;7.50;91.70
22787;DHT22;63134;52.020;4.714;2024-03-06T03:52:56;7.60;91.50
22787;DHT22;63134;52.020;4.714;2024-03-06T03:55:43;7.60;91.30
22787;DHT22;63134;52.020;4.714;2024-03-06T03:58:29;7.50;90.80
22787;DHT22;63134;52.020;4.714;2024-03-06T04:01:15;7.40;90.80
22787;DHT22;63134;52.020;4.714;2024-03-06T04:04:00;7.20;90.80
22787;DHT22;63134;52.020;4.714;2024-03-06T04:06:46;7.10;90.90
22787;DHT22;63134;52.020;4.714;2024-03-06T04:09:34;7.00;91.10
22787;DHT22;63134;52.020;4.714;2024-03-06T04:12:24;6.90;91.20
22787;DHT22;63134;52.020;4.714;2024-03-06T04:15:10;6.80;91.60
22787;DHT22;63134;52.020;4.714;2024-03-06T04:17:55;6.70;91.30
22787;DHT22;63134;52.020;4.714;2024-03-06T04:20:41;6.60;91.30
22787;DHT22;63134;52.020;4.714;2024-03-06T04:23:27;6.60;91.40
22787;DHT22;63134;52.020;4.714;2024-03-06T04:26:13;6.50;91.60
22787;DHT22;63134;52.020;4.714;2024-03-06T04:28:58;6.50;91.60
22787;DHT22;63134;52.020;4.714;2024-03-06T04:31:44;6.40;91.60
22787;DHT22;63134;52.020;4.714;2024-03-06T04:34:30;6.30;91.50
22787;DHT22;63134;52.020;4.714;2024-03-06T04:37:16;6.30;91.70
22787;DHT22;63134;52.020;4.714;2024-03-06T04:40:02;6.20;91.70
22787;DHT22;63134;52.020;4.714;2024-03-06T04:42:48;6.20;91.70
22787;DHT22;63134;52.020;4.714;2024-03-06T04:45:34;6.10;91.60
22787;DHT22;63134;52.020;4.714;2024-03-06T04:48:20;6.10;91.70
22787;DHT22;63134;52.020;4.714;2024-03-06T04:51:05;6.00;91.80
22787;DHT22;63134;52.020;4.714;2024-03-06T04:53:51;6.00;91.80
22787;DHT22;63134;52.020;4.714;2024-03-06T04:56:36;6.00;91.70
22787;DHT22;63134;52.020;4.714;2024-03-06T04:59:22;5.90;91.70
22787;DHT22;63134;52.020;4.714;2024-03-06T05:02:07;5.90;91.70
22787;DHT22;63134;52.020;4.714;2024-03-06T05:04:53;5.90;91.70
22787;DHT22;63134;52.020;4.714;2024-03-06T05:07:56;5.80;91.80
22787;DHT22;63134;52.020;4.714;2024-03-06T05:11:00;5.70;91.80
22787;DHT22;63134;52.020;4.714;2024-03-06T05:14:05;5.70;91.70
22787;DHT22;63134;52.020;4.714;2024-03-06T05:17:08;5.60;91.90
22787;DHT22;63134;52.020;4.714;2024-03-06T05:20:13;5.60;91.90
22787;DHT22;63134;52.020;4.714;2024-03-06T05:23:16;5.50;91.90
22787;DHT22;63134;52.020;4.714;2024-03-06T05:26:20;5.50;91.90
22787;DHT22;63134;52.020;4.714;2024-03-06T05:29:23;5.40;91.90
22787;DHT22;63134;52.020;4.714;2024-03-06T05:32:26;5.40;92.00
22787;DHT22;63134;52.020;4.714;2024-03-06T05:35:29;5.40;92.00
22787;DHT22;63134;52.020;4.714;2024-03-06T05:38:32;5.30;92.00
22787;DHT22;63134;52.020;4.714;2024-03-06T05:41:36;5.30;91.90
22787;DHT22;63134;52.020;4.714;2024-03-06T05:44:38;5.20;92.00
22787;DHT22;63134;52.020;4.714;2024-03-06T05:47:41;5.30;92.30
22787;DHT22;63134;52.020;4.714;2024-03-06T05:50:44;5.30;92.50
22787;DHT22;63134;52.020;4.714;2024-03-06T05:53:47;5.40;92.50
22787;DHT22;63134;52.020;4.714;2024-03-06T05:56:51;5.40;92.40
22787;DHT22;63134;52.020;4.714;2024-03-06T05:59:54;5.40;92.40
22787;DHT22;63134;52.020;4.714;2024-03-06T06:02:40;5.40;92.40
22787;DHT22;63134;52.020;4.714;2024-03-06T06:05:25;5.40;92.50
22787;DHT22;63134;52.020;4.714;2024-03-06T06:08:11;5.40;92.50
22787;DHT22;63134;52.020;4.714;2024-03-06T06:10:56;5.30;92.60
22787;DHT22;63134;52.020;4.714;2024-03-06T06:13:42;5.30;92.70
22787;DHT22;63134;52.020;4.714;2024-03-06T06:16:35;5.30;92.70
22787;DHT22;63134;52.020;4.714;2024-03-06T06:19:21;5.30;92.80
22787;DHT22;63134;52.020;4.714;2024-03-06T06:22:06;5.20;92.70
22787;DHT22;63134;52.020;4.714;2024-03-06T06:24:52;5.20;92.90
22787;DHT22;63134;52.020;4.714;2024-03-06T06:27:37;5.20;92.80
22787;DHT22;63134;52.020;4.714;2024-03-06T06:30:23;5.20;93.00
22787;DHT22;63134;52.020;4.714;2024-03-06T06:33:10;5.20;93.00
22787;DHT22;63134;52.020;4.714;2024-03-06T06:35:55;5.30;93.00
22787;DHT22;63134;52.020;4.714;2024-03-06T06:38:41;5.20;93.00
22787;DHT22;63134;52.020;4.714;2024-03-06T06:41:26;5.30;93.20
22787;DHT22;63134;52.020;4.714;2024-03-06T06:44:12;5.30;93.20
22787;DHT22;63134;52.020;4.714;2024-03-06T06:46:57;5.30;93.00
22787;DHT22;63134;52.020;4.714;2024-03-06T06:49:43;5.40;93.20
22787;DHT22;63134;52.020;4.714;2024-03-06T06:52:30;5.40;93.20
22787;DHT22;63134;52.020;4.714;2024-03-06T06:55:16;5.50;93.30
22787;DHT22;63134;52.020;4.714;2024-03-06T06:58:02;5.60;93.40
22787;DHT22;63134;52.020;4.714;2024-03-06T07:00:48;5.70;93.50
22787;DHT22;63134;52.020;4.714;2024-03-06T07:03:34;5.80;93.50
22787;DHT22;63134;52.020;4.714;2024-03-06T07:06:20;5.90;93.40
22787;DHT22;63134;52.020;4.714;2024-03-06T07:09:05;6.00;93.30
22787;DHT22;63134;52.020;4.714;2024-03-06T07:11:54;6.10;93.30
22787;DHT22;63134;52.020;4.714;2024-03-06T07:14:41;6.20;93.40
22787;DHT22;63134;52.020;4.714;2024-03-06T07:17:26;6.30;93.40
22787;DHT22;63134;52.020;4.714;2024-03-06T07:20:12;6.50;93.40
22787;DHT22;63134;52.020;4.714;2024-03-06T07:22:59;6.60;93.20
22787;DHT22;63134;52.020;4.714;2024-03-06T07:25:45;6.70;93.20
22787;DHT22;63134;52.020;4.714;2024-03-06T07:28:30;6.80;93.30
22787;DHT22;63134;52.020;4.714;2024-03-06T07:31:16;6.90;93.40
22787;DHT22;63134;52.020;4.714;2024-03-06T07:34:01;7.10;93.30
22787;DHT22;63134;52.020;4.714;2024-03-06T07:36:51;7.20;93.30
22787;DHT22;63134;52.020;4.714;2024-03-06T07:39:37;7.40;93.40
22787;DHT22;63134;52.020;4.714;2024-03-06T07:42:22;7.50;93.20
22787;DHT22;63134;52.020;4.714;2024-03-06T07:45:08;7.60;93.10
22787;DHT22;63134;52.020;4.714;2024-03-06T07:47:54;7.80;93.30
22787;DHT22;63134;52.020;4.714;2024-03-06T07:50:40;8.00;93.30
22787;DHT22;63134;52.020;4.714;2024-03-06T07:53:27;8.20;93.40
22787;DHT22;63134;52.020;4.714;2024-03-06T07:56:13;8.40;93.40
22787;DHT22;63134;52.020;4.714;2024-03-06T07:59:00;8.60;93.30
22787;DHT22;63134;52.020;4.714;2024-03-06T08:01:45;8.80;93.10
22787;DHT22;63134;52.020;4.714;2024-03-06T08:04:31;8.90;93.00
22787;DHT22;63134;52.020;4.714;2024-03-06T08:07:16;9.10;93.10
22787;DHT22;63134;52.020;4.714;2024-03-06T08:10:02;9.20;92.90
22787;DHT22;63134;52.020;4.714;2024-03-06T08:12:48;9.30;92.70
22787;DHT22;63134;52.020;4.714;2024-03-06T08:15:33;9.40;92.60
22787;DHT22;63134;52.020;4.714;2024-03-06T08:18:19;9.40;92.70
22787;DHT22;63134;52.020;4.714;2024-03-06T08:21:04;9.40;92.60
22787;DHT22;63134;52.020;4.714;2024-03-06T08:23:51;9.50;92.70
22787;DHT22;63134;52.020;4.714;2024-03-06T08:26:36;9.50;92.50
22787;DHT22;63134;52.020;4.714;2024-03-06T08:29:23;9.50;92.60
22787;DHT22;63134;52.020;4.714;2024-03-06T08:32:08;9.50;92.50
22787;DHT22;63134;52.020;4.714;2024-03-06T08:34:54;9.50;92.90
22787;DHT22;63134;52.020;4.714;2024-03-06T08:37:40;9.70;93.10
22787;DHT22;63134;52.020;4.714;2024-03-06T08:40:26;9.80;93.20
22787;DHT22;63134;52.020;4.714;2024-03-06T08:43:13;9.90;93.00
22787;DHT22;63134;52.020;4.714;2024-03-06T08:46:01;10.00;92.90
22787;DHT22;63134;52.020;4.714;2024-03-06T08:48:46;10.10;93.10
22787;DHT22;63134;52.020;4.714;2024-03-06T08:51:32;10.30;93.10
22787;DHT22;63134;52.020;4.714;2024-03-06T08:54:18;10.40;93.00
22787;DHT22;63134;52.020;4.714;2024-03-06T08:57:04;10.60;93.20
22787;DHT22;63134;52.020;4.714;2024-03-06T08:59:51;10.80;93.20
22787;DHT22;63134;52.020;4.714;2024-03-06T09:02:39;10.90;92.90
22787;DHT22;63134;52.020;4.714;2024-03-06T09:05:27;11.00;92.50
22787;DHT22;63134;52.020;4.714;2024-03-06T09:08:13;11.00;92.60
22787;DHT22;63134;52.020;4.714;2024-03-06T09:10:58;11.00;92.60
22787;DHT22;63134;52.020;4.714;2024-03-06T09:13:44;10.90;92.30
22787;DHT22;63134;52.020;4.714;2024-03-06T09:16:30;10.80;92.30
22787;DHT22;63134;52.020;4.714;2024-03-06T09:19:15;10.70;92.40
22787;DHT22;63134;52.020;4.714;2024-03-06T09:22:04;10.50;92.50
22787;DHT22;63134;52.020;4.714;2024-03-06T09:24:49;10.40;92.80
22787;DHT22;63134;52.020;4.714;2024-03-06T09:27:35;10.30;93.00
22787;DHT22;63134;52.020;4.714;2024-03-06T09:30:21;10.20;93.20
22787;DHT22;63134;52.020;4.714;2024-03-06T09:33:07;10.20;93.50
22787;DHT22;63134;52.020;4.714;2024-03-06T09:35:52;10.20;93.70
22787;DHT22;63134;52.020;4.714;2024-03-06T09:38:39;10.20;93.90
22787;DHT22;63134;52.020;4.714;2024-03-06T09:41:26;10.30;93.90
22787;DHT22;63134;52.020;4.714;2024-03-06T09:44:12;10.40;94.20
22787;DHT22;63134;52.020;4.714;2024-03-06T09:47:01;10.40;94.20
22787;DHT22;63134;52.020;4.714;2024-03-06T09:49:52;10.50;94.20
22787;DHT22;63134;52.020;4.714;2024-03-06T09:52:40;10.60;94.30
22787;DHT22;63134;52.020;4.714;2024-03-06T09:55:28;10.70;94.30
22787;DHT22;63134;52.020;4.714;2024-03-06T09:58:15;10.70;94.10
22787;DHT22;63134;52.020;4.714;2024-03-06T10:01:01;10.70;94.10
22787;DHT22;63134;52.020;4.714;2024-03-06T10:03:52;10.80;94.20
22787;DHT22;63134;52.020;4.714;2024-03-06T10:06:38;10.90;94.40
22787;DHT22;63134;52.020;4.714;2024-03-06T10:09:25;11.00;94.30
22787;DHT22;63134;52.020;4.714;2024-03-06T10:12:12;11.00;94.20
22787;DHT22;63134;52.020;4.714;2024-03-06T10:14:58;11.10;94.20
22787;DHT22;63134;52.020;4.714;2024-03-06T10:17:44;11.20;94.20
22787;DHT22;63134;52.020;4.714;2024-03-06T10:20:35;11.30;94.20
22787;DHT22;63134;52.020;4.714;2024-03-06T10:23:20;11.40;94.10
22787;DHT22;63134;52.020;4.714;2024-03-06T10:26:07;11.50;94.40
22787;DHT22;63134;52.020;4.714;2024-03-06T10:28:55;11.70;94.20
22787;DHT22;63134;52.020;4.714;2024-03-06T10:31:41;11.80;94.10
22787;DHT22;63134;52.020;4.714;2024-03-06T10:34:31;12.00;93.70
22787;DHT22;63134;52.020;4.714;2024-03-06T10:37:17;12.00;93.80
22787;DHT22;63134;52.020;4.714;2024-03-06T10:40:03;12.20;93.90
22787;DHT22;63134;52.020;4.714;2024-03-06T10:42:51;12.50;94.30
22787;DHT22;63134;52.020;4.714;2024-03-06T10:45:46;12.90;94.10
22787;DHT22;63134;52.020;4.714;2024-03-06T10:48:33;13.30;93.60
22787;DHT22;63134;52.020;4.714;2024-03-06T10:51:21;13.50;93.50
22787;DHT22;63134;52.020;4.714;2024-03-06T10:54:08;13.80;92.90
22787;DHT22;63134;52.020;4.714;2024-03-06T10:56:55;14.10;92.50
22787;DHT22;63134;52.020;4.714;2024-03-06T10:59:41;14.50;92.70
22787;DHT22;63134;52.020;4.714;2024-03-06T11:02:30;14.90;91.90
22787;DHT22;63134;52.020;4.714;2024-03-06T11:05:16;15.10;90.50
22787;DHT22;63134;52.020;4.714;2024-03-06T11:08:01;15.20;90.20
22787;DHT22;63134;52.020;4.714;2024-03-06T11:10:48;15.30;90.20
22787;DHT22;63134;52.020;4.714;2024-03-06T11:13:34;15.70;90.50
22787;DHT22;63134;52.020;4.714;2024-03-06T11:16:31;16.20;89.00
22787;DHT22;63134;52.020;4.714;2024-03-06T11:19:19;16.50;87.30
22787;DHT22;63134;52.020;4.714;2024-03-06T11:22:04;16.80;87.30
22787;DHT22;63134;52.020;4.714;2024-03-06T11:24:51;16.90;82.70
22787;DHT22;63134;52.020;4.714;2024-03-06T11:28:03;16.90;83.00
22787;DHT22;63134;52.020;4.714;2024-03-06T11:31:02;17.00;84.40
22787;DHT22;63134;52.020;4.714;2024-03-06T11:33:53;16.80;81.70
22787;DHT22;63134;52.020;4.714;2024-03-06T11:36:41;16.70;83.00
22787;DHT22;63134;52.020;4.714;2024-03-06T11:39:34;16.90;83.70
22787;DHT22;63134;52.020;4.714;2024-03-06T11:42:33;17.40;83.50
22787;DHT22;63134;52.020;4.714;2024-03-06T11:45:24;17.70;82.30
22787;DHT22;63134;52.020;4.714;2024-03-06T11:48:14;18.00;81.10
22787;DHT22;63134;52.020;4.714;2024-03-06T11:51:03;18.10;79.40
22787;DHT22;63134;52.020;4.714;2024-03-06T11:53:50;18.30;78.40
22787;DHT22;63134;52.020;4.714;2024-03-06T11:56:42;18.20;75.70
22787;DHT22;63134;52.020;4.714;2024-03-06T11:59:31;18.40;76.90
22787;DHT22;63134;52.020;4.714;2024-03-06T12:02:18;19.60;78.70
22787;DHT22;63134;52.020;4.714;2024-03-06T12:05:05;20.10;74.40
22787;DHT22;63134;52.020;4.714;2024-03-06T12:07:51;19.50;72.90
22787;DHT22;63134;52.020;4.714;2024-03-06T12:10:38;19.00;72.80
22787;DHT22;63134;52.020;4.714;2024-03-06T12:13:25;18.90;74.80
22787;DHT22;63134;52.020;4.714;2024-03-06T12:16:10;19.90;74.10
22787;DHT22;63134;52.020;4.714;2024-03-06T12:18:57;19.40;67.60
22787;DHT22;63134;52.020;4.714;2024-03-06T12:21:47;19.40;70.80
22787;DHT22;63134;52.020;4.714;2024-03-06T12:24:33;20.20;71.80
22787;DHT22;63134;52.020;4.714;2024-03-06T12:27:22;21.80;71.70
22787;DHT22;63134;52.020;4.714;2024-03-06T12:30:11;23.20;68.80
22787;DHT22;63134;52.020;4.714;2024-03-06T12:33:01;23.60;61.20
22787;DHT22;63134;52.020;4.714;2024-03-06T12:36:04;24.20;61.20
22787;DHT22;63134;52.020;4.714;2024-03-06T12:38:54;25.10;56.70
22787;DHT22;63134;52.020;4.714;2024-03-06T12:41:40;25.30;54.50
22787;DHT22;63134;52.020;4.714;2024-03-06T12:44:26;26.00;53.80
22787;DHT22;63134;52.020;4.714;2024-03-06T12:47:12;26.70;53.20
22787;DHT22;63134;52.020;4.714;2024-03-06T12:49:57;26.90;52.30
22787;DHT22;63134;52.020;4.714;2024-03-06T12:52:44;27.60;51.70
22787;DHT22;63134;52.020;4.714;2024-03-06T12:55:31;28.10;48.80
22787;DHT22;63134;52.020;4.714;2024-03-06T12:58:17;28.30;47.90
22787;DHT22;63134;52.020;4.714;2024-03-06T13:01:03;28.80;45.30
22787;DHT22;63134;52.020;4.714;2024-03-06T13:03:49;29.00;44.90
22787;DHT22;63134;52.020;4.714;2024-03-06T13:06:34;29.00;43.40
22787;DHT22;63134;52.020;4.714;2024-03-06T13:09:20;27.70;40.40
22787;DHT22;63134;52.020;4.714;2024-03-06T13:12:06;26.30;40.80
22787;DHT22;63134;52.020;4.714;2024-03-06T13:14:51;24.90;43.20
22787;DHT22;63134;52.020;4.714;2024-03-06T13:17:37;24.30;44.30
22787;DHT22;63134;52.020;4.714;2024-03-06T13:20:23;25.40;45.30
22787;DHT22;63134;52.020;4.714;2024-03-06T13:23:09;26.90;43.80
22787;DHT22;63134;52.020;4.714;2024-03-06T13:25:54;28.10;42.80
22787;DHT22;63134;52.020;4.714;2024-03-06T13:28:40;29.10;41.20
22787;DHT22;63134;52.020;4.714;2024-03-06T13:31:26;29.80;40.30
22787;DHT22;63134;52.020;4.714;2024-03-06T13:34:11;30.40;39.40
22787;DHT22;63134;52.020;4.714;2024-03-06T13:36:57;31.00;39.10
22787;DHT22;63134;52.020;4.714;2024-03-06T13:39:43;31.10;37.60
22787;DHT22;63134;52.020;4.714;2024-03-06T13:42:28;31.60;37.20
22787;DHT22;63134;52.020;4.714;2024-03-06T13:45:14;32.00;36.90
22787;DHT22;63134;52.020;4.714;2024-03-06T13:48:00;31.10;34.80
22787;DHT22;63134;52.020;4.714;2024-03-06T13:50:46;29.40;35.90
22787;DHT22;63134;52.020;4.714;2024-03-06T13:53:32;29.60;36.20
22787;DHT22;63134;52.020;4.714;2024-03-06T13:56:18;29.90;36.40
22787;DHT22;63134;52.020;4.714;2024-03-06T13:59:04;30.40;36.60
22787;DHT22;63134;52.020;4.714;2024-03-06T14:01:49;31.30;36.30
22787;DHT22;63134;52.020;4.714;2024-03-06T14:04:35;32.30;35.40
22787;DHT22;63134;52.020;4.714;2024-03-06T14:07:20;32.80;34.20
22787;DHT22;63134;52.020;4.714;2024-03-06T14:10:07;32.70;33.70
22787;DHT22;63134;52.020;4.714;2024-03-06T14:12:53;32.70;33.40
22787;DHT22;63134;52.020;4.714;2024-03-06T14:15:40;33.10;32.90
22787;DHT22;63134;52.020;4.714;2024-03-06T14:18:26;33.50;32.70
22787;DHT22;63134;52.020;4.714;2024-03-06T14:21:11;33.70;31.40
22787;DHT22;63134;52.020;4.714;2024-03-06T14:23:59;32.40;30.20
22787;DHT22;63134;52.020;4.714;2024-03-06T14:26:49;31.80;31.70
22787;DHT22;63134;52.020;4.714;2024-03-06T14:29:38;32.30;32.50
22787;DHT22;63134;52.020;4.714;2024-03-06T14:32:23;32.90;31.80
22787;DHT22;63134;52.020;4.714;2024-03-06T14:35:11;33.30;30.50
22787;DHT22;63134;52.020;4.714;2024-03-06T14:37:57;31.60;30.20
22787;DHT22;63134;52.020;4.714;2024-03-06T14:40:42;31.10;32.30
22787;DHT22;63134;52.020;4.714;2024-03-06T14:43:29;32.00;32.00
22787;DHT22;63134;52.020;4.714;2024-03-06T14:46:15;32.50;31.40
22787;DHT22;63134;52.020;4.714;2024-03-06T14:49:01;31.00;31.00
22787;DHT22;63134;52.020;4.714;2024-03-06T14:51:48;29.90;32.70
22787;DHT22;63134;52.020;4.714;2024-03-06T14:54:33;29.60;33.60
22787;DHT22;63134;52.020;4.714;2024-03-06T14:57:19;30.60;33.50
22787;DHT22;63134;52.020;4.714;2024-03-06T15:00:07;29.70;32.40
22787;DHT22;63134;52.020;4.714;2024-03-06T15:02:53;29.10;33.80
22787;DHT22;63134;52.020;4.714;2024-03-06T15:05:43;29.90;34.00
22787;DHT22;63134;52.020;4.714;2024-03-06T15:08:29;28.90;33.10
22787;DHT22;63134;52.020;4.714;2024-03-06T15:11:15;27.50;33.80
22787;DHT22;63134;52.020;4.714;2024-03-06T15:14:00;26.20;35.20
22787;DHT22;63134;52.020;4.714;2024-03-06T15:16:46;25.10;36.00
22787;DHT22;63134;52.020;4.714;2024-03-06T15:19:31;24.20;37.20
22787;DHT22;63134;52.020;4.714;2024-03-06T15:22:17;23.50;38.40
22787;DHT22;63134;52.020;4.714;2024-03-06T15:25:03;22.70;39.10
22787;DHT22;63134;52.020;4.714;2024-03-06T15:27:49;22.20;40.10
22787;DHT22;63134;52.020;4.714;2024-03-06T15:30:34;21.70;40.80
22787;DHT22;63134;52.020;4.714;2024-03-06T15:33:20;21.20;41.40
22787;DHT22;63134;52.020;4.714;2024-03-06T15:36:06;20.80;42.00
22787;DHT22;63134;52.020;4.714;2024-03-06T15:38:52;20.40;42.70
22787;DHT22;63134;52.020;4.714;2024-03-06T15:41:41;20.00;43.50
22787;DHT22;63134;52.020;4.714;2024-03-06T15:44:27;19.70;44.30
22787;DHT22;63134;52.020;4.714;2024-03-06T15:47:13;19.30;45.50
22787;DHT22;63134;52.020;4.714;2024-03-06T15:49:58;19.00;45.60
22787;DHT22;63134;52.020;4.714;2024-03-06T15:52:44;19.00;46.20
22787;DHT22;63134;52.020;4.714;2024-03-06T15:55:29;19.00;46.70
22787;DHT22;63134;52.020;4.714;2024-03-06T15:58:16;18.90;46.80
22787;DHT22;63134;52.020;4.714;2024-03-06T16:01:01;19.10;47.20
22787;DHT22;63134;52.020;4.714;2024-03-06T16:03:50;18.80;47.10
22787;DHT22;63134;52.020;4.714;2024-03-06T16:06:37;18.80;47.70
22787;DHT22;63134;52.020;4.714;2024-03-06T16:09:26;19.30;48.30
22787;DHT22;63134;52.020;4.714;2024-03-06T16:12:11;20.40;48.30
22787;DHT22;63134;52.020;4.714;2024-03-06T16:14:57;22.00;47.40
22787;DHT22;63134;52.020;4.714;2024-03-06T16:17:42;23.20;45.80
22787;DHT22;63134;52.020;4.714;2024-03-06T16:20:28;24.20;44.50
22787;DHT22;63134;52.020;4.714;2024-03-06T16:23:13;24.50;43.00
22787;DHT22;63134;52.020;4.714;2024-03-06T16:25:59;24.10;42.50
22787;DHT22;63134;52.020;4.714;2024-03-06T16:28:45;24.40;42.60
22787;DHT22;63134;52.020;4.714;2024-03-06T16:31:31;24.80;42.20
22787;DHT22;63134;52.020;4.714;2024-03-06T16:34:17;25.20;41.70
22787;DHT22;63134;52.020;4.714;2024-03-06T16:37:06;25.40;41.20
22787;DHT22;63134;52.020;4.714;2024-03-06T16:39:52;25.40;41.00
22787;DHT22;63134;52.020;4.714;2024-03-06T16:42:38;25.20;40.90
22787;DHT22;63134;52.020;4.714;2024-03-06T16:45:23;25.10;41.60
22787;DHT22;63134;52.020;4.714;2024-03-06T16:48:09;24.90;41.10
22787;DHT22;63134;52.020;4.714;2024-03-06T16:50:56;24.60;41.00
22787;DHT22;63134;52.020;4.714;2024-03-06T16:53:42;24.40;41.10
22787;DHT22;63134;52.020;4.714;2024-03-06T16:56:28;23.60;41.00
22787;DHT22;63134;52.020;4.714;2024-03-06T16:59:14;22.30;41.80
22787;DHT22;63134;52.020;4.714;2024-03-06T17:02:00;21.10;43.00
22787;DHT22;63134;52.020;4.714;2024-03-06T17:04:45;20.00;44.00
22787;DHT22;63134;52.020;4.714;2024-03-06T17:07:31;19.10;45.10
22787;DHT22;63134;52.020;4.714;2024-03-06T17:10:16;18.40;46.10
22787;DHT22;63134;52.020;4.714;2024-03-06T17:13:02;17.80;47.00
22787;DHT22;63134;52.020;4.714;2024-03-06T17:15:47;17.30;47.90
22787;DHT22;63134;52.020;4.714;2024-03-06T17:18:34;16.80;48.60
22787;DHT22;63134;52.020;4.714;2024-03-06T17:21:20;16.40;49.30
22787;DHT22;63134;52.020;4.714;2024-03-06T17:24:06;16.00;49.80
22787;DHT22;63134;52.020;4.714;2024-03-06T17:26:52;15.70;50.50
22787;DHT22;63134;52.020;4.714;2024-03-06T17:29:37;15.30;51.00
22787;DHT22;63134;52.020;4.714;2024-03-06T17:32:23;14.80;51.40
22787;DHT22;63134;52.020;4.714;2024-03-06T17:35:09;14.50;52.10
22787;DHT22;63134;52.020;4.714;2024-03-06T17:37:55;14.10;52.60
22787;DHT22;63134;52.020;4.714;2024-03-06T17:40:41;13.80;53.20
22787;DHT22;63134;52.020;4.714;2024-03-06T17:43:28;13.50;53.70